createdAt,value
2018-12-04T00:01:15.446Z,101500.11
2018-12-04T00:03:57.857Z,101510.08
2018-12-04T00:06:40.238Z,101517.45
2018-12-04T00:09:09.429Z,101510.19
2018-12-04T00:11:38.498Z,101521.90
2018-12-04T00:14:07.622Z,101522.75
2018-12-04T00:16:36.818Z,101523.91
2018-12-04T00:19:06.942Z,101523.41
2018-12-04T00:21:35.955Z,101524.75
2018-12-04T00:24:05.031Z,101532.81
2018-12-04T00:26:34.078Z,101537.85
2018-12-04T00:29:03.111Z,101546.16
2018-12-04T00:31:32.184Z,101554.96
2018-12-04T00:34:01.258Z,101554.55
2018-12-04T00:36:30.315Z,101558.36
2018-12-04T00:38:59.578Z,101556.82
2018-12-04T00:41:28.663Z,101562.05
2018-12-04T00:43:57.687Z,101565.05
2018-12-04T00:46:26.758Z,101576.20
2018-12-04T00:48:55.777Z,101572.41
2018-12-04T00:51:24.807Z,101581.05
2018-12-04T00:53:53.856Z,101572.91
2018-12-04T00:56:22.938Z,101575.09
2018-12-04T00:58:52.051Z,101581.88
2018-12-04T01:01:21.993Z,101584.53
2018-12-04T01:03:51.064Z,101595.91
2018-12-04T01:06:20.172Z,101599.13
2018-12-04T01:08:49.186Z,101602.36
2018-12-04T01:11:18.224Z,101605.04
2018-12-04T01:13:47.284Z,101603.34
2018-12-04T01:16:16.412Z,101615.68
2018-12-04T01:18:45.430Z,101620.86
2018-12-04T01:21:14.479Z,101609.23
2018-12-04T01:23:43.726Z,101616.58
2018-12-04T01:26:12.755Z,101613.80
2018-12-04T01:28:41.815Z,101614.17
2018-12-04T01:31:10.862Z,101613.11
2018-12-04T01:33:39.900Z,101620.74
2018-12-04T01:36:08.940Z,101627.88
2018-12-04T01:38:37.971Z,101637.78
2018-12-04T01:41:07.038Z,101634.13
2018-12-04T01:43:36.189Z,101636.22
2018-12-04T01:46:05.283Z,101636.39
2018-12-04T01:48:34.479Z,101647.95
2018-12-04T01:51:04.085Z,101649.17
2018-12-04T01:53:36.156Z,101650.80
2018-12-04T01:56:05.228Z,101653.80
2018-12-04T01:58:34.244Z,101666.55
2018-12-04T02:01:03.287Z,101659.67
2018-12-04T02:03:32.321Z,101674.97
2018-12-04T02:06:01.324Z,101681.56
2018-12-04T02:08:30.517Z,101679.10
2018-12-04T02:10:59.644Z,101690.52
2018-12-04T02:13:28.662Z,101703.31
2018-12-04T02:15:57.738Z,101707.45
2018-12-04T02:18:26.855Z,101708.44
2018-12-04T02:20:55.904Z,101718.30
2018-12-04T02:23:24.996Z,101720.87
2018-12-04T02:25:53.995Z,101726.42
2018-12-04T02:28:27.063Z,101722.23
2018-12-04T02:30:56.095Z,101724.66
2018-12-04T02:33:25.318Z,101725.56
2018-12-04T02:35:54.464Z,101732.92
2018-12-04T02:38:23.555Z,101734.64
2018-12-04T02:40:52.617Z,101748.53
2018-12-04T02:43:21.723Z,101756.58
2018-12-04T02:45:50.834Z,101755.23
2018-12-04T02:48:19.911Z,101758.97
2018-12-04T02:50:48.987Z,101762.73
2018-12-04T02:53:18.212Z,101764.73
2018-12-04T02:55:47.306Z,101772.70
2018-12-04T02:58:16.400Z,101776.59
2018-12-04T03:00:45.510Z,101775.38
2018-12-04T03:03:14.694Z,101790.09
2018-12-04T03:05:43.792Z,101779.99
2018-12-04T03:08:13.905Z,101786.11
2018-12-04T03:10:42.945Z,101789.38
2018-12-04T03:13:12.018Z,101793.78
2018-12-04T03:15:41.069Z,101791.44
2018-12-04T03:18:10.178Z,101795.09
2018-12-04T03:20:39.284Z,101791.17
2018-12-04T03:23:08.358Z,101796.28
2018-12-04T03:25:37.579Z,101797.70
2018-12-04T03:28:06.701Z,101803.09
2018-12-04T03:30:36.175Z,101802.36
2018-12-04T03:33:05.276Z,101808.30
2018-12-04T03:35:34.448Z,101805.06
2018-12-04T03:38:03.565Z,101806.51
2018-12-04T03:40:32.659Z,101807.25
2018-12-04T03:43:02.368Z,101812.55
2018-12-04T03:45:31.464Z,101813.61
2018-12-04T03:48:00.534Z,101816.30
2018-12-04T03:50:29.576Z,101829.30
2018-12-04T03:52:58.726Z,101838.20
2018-12-04T03:55:27.784Z,101848.27
2018-12-04T03:58:03.084Z,101852.02
2018-12-04T04:00:32.290Z,101853.94
2018-12-04T04:03:01.309Z,101860.63
2018-12-04T04:05:30.379Z,101864.98
2018-12-04T04:07:59.519Z,101871.22
2018-12-04T04:10:29.360Z,101872.75
2018-12-04T04:12:58.385Z,101873.70
2018-12-04T04:15:27.445Z,101884.64
2018-12-04T04:17:56.495Z,101882.90
2018-12-04T04:20:25.586Z,101890.27
2018-12-04T04:22:54.638Z,101893.30
2018-12-04T04:25:23.652Z,101894.06
2018-12-04T04:27:52.704Z,101889.20
2018-12-04T04:30:21.739Z,101895.47
2018-12-04T04:32:50.807Z,101896.30
2018-12-04T04:35:20.445Z,101900.27
2018-12-04T04:37:49.443Z,101901.91
2018-12-04T04:40:19.304Z,101916.23
2018-12-04T04:42:48.322Z,101926.29
2018-12-04T04:45:17.416Z,101921.41
2018-12-04T04:47:46.411Z,101929.17
2018-12-04T04:50:15.430Z,101915.28
2018-12-04T04:52:44.459Z,101919.53
2018-12-04T04:55:13.553Z,101922.16
2018-12-04T04:57:42.648Z,101929.11
2018-12-04T05:00:12.043Z,101923.92
2018-12-04T05:02:41.221Z,101930.85
2018-12-04T05:05:10.243Z,101925.27
2018-12-04T05:07:39.273Z,101929.84
2018-12-04T05:10:08.459Z,101929.73
2018-12-04T05:12:37.616Z,101933.03
2018-12-04T05:15:07.738Z,101936.58
2018-12-04T05:17:36.836Z,101947.33
2018-12-04T05:20:07.622Z,101944.94
2018-12-04T05:22:36.944Z,101945.37
2018-12-04T05:25:06.957Z,101948.95
2018-12-04T05:27:37.249Z,101954.13
2018-12-04T05:30:07.162Z,101954.85
2018-12-04T05:32:36.681Z,101961.28
2018-12-04T05:35:05.839Z,101960.23
2018-12-04T05:37:34.896Z,101959.31
2018-12-04T05:40:04.054Z,101955.14
2018-12-04T05:42:33.098Z,101963.64
2018-12-04T05:45:02.826Z,101971.72
2018-12-04T05:47:32.532Z,101977.61
2018-12-04T05:50:01.639Z,101979.67
2018-12-04T05:52:31.215Z,101982.78
2018-12-04T05:55:00.380Z,101979.97
2018-12-04T05:57:29.435Z,101989.39
2018-12-04T05:59:58.452Z,101989.30
2018-12-04T06:02:27.590Z,101993.13
2018-12-04T06:04:56.765Z,101993.13
2018-12-04T06:07:25.783Z,102000.78
2018-12-04T06:09:54.933Z,102011.25
2018-12-04T06:12:24.223Z,102008.55
2018-12-04T06:14:53.245Z,102017.64
2018-12-04T06:17:22.413Z,102023.87
2018-12-04T06:19:51.572Z,102028.75
2018-12-04T06:22:22.786Z,102028.20
2018-12-04T06:24:51.901Z,102036.92
2018-12-04T06:27:20.911Z,102033.22
2018-12-04T06:29:50.002Z,102034.35
2018-12-04T06:32:19.095Z,102036.92
2018-12-04T06:34:48.191Z,102037.13
2018-12-04T06:37:17.286Z,102027.06
2018-12-04T06:39:46.381Z,102034.51
2018-12-04T06:42:15.474Z,102047.66
2018-12-04T06:44:46.830Z,102048.88
2018-12-04T06:47:13.791Z,102054.40
2018-12-04T06:49:43.023Z,102063.74
2018-12-04T06:52:12.108Z,102060.44
2018-12-04T06:54:41.169Z,102070.29
2018-12-04T06:57:10.351Z,102071.55
2018-12-04T06:59:39.460Z,102073.77
2018-12-04T07:02:09.398Z,102075.11
2018-12-04T07:04:38.878Z,102081.33
2018-12-04T07:07:07.924Z,102077.09
2018-12-04T07:09:36.989Z,102074.31
2018-12-04T07:12:06.099Z,102073.82
2018-12-04T07:14:35.604Z,102078.92
2018-12-04T07:17:04.995Z,102083.77
2018-12-04T07:19:34.270Z,102092.98
2018-12-04T07:22:03.494Z,102091.41
2018-12-04T07:24:32.912Z,102086.75
2018-12-04T07:27:02.141Z,102091.05
2018-12-04T07:29:31.440Z,102092.28
2018-12-04T07:32:00.940Z,102096.86
2018-12-04T07:34:31.255Z,102098.28
2018-12-04T07:37:00.770Z,102115.03
2018-12-04T07:39:31.197Z,102121.34
2018-12-04T07:42:00.538Z,102130.88
2018-12-04T07:44:29.889Z,102133.13
2018-12-04T07:47:01.184Z,102140.15
2018-12-04T07:49:32.078Z,102141.87
2018-12-04T07:52:01.785Z,102148.80
2018-12-04T07:54:31.086Z,102149.65
2018-12-04T07:57:00.206Z,102155.44
2018-12-04T07:59:29.244Z,102147.64
2018-12-04T08:01:58.334Z,102142.76
2018-12-04T08:04:27.429Z,102154.80
2018-12-04T08:06:56.511Z,102150.05
2018-12-04T08:09:26.115Z,102154.39
2018-12-04T08:11:55.131Z,102153.33
2018-12-04T08:14:27.053Z,102149.36
2018-12-04T08:16:56.121Z,102151.61
2018-12-04T08:19:25.280Z,102153.80
2018-12-04T08:21:56.157Z,102167.70
2018-12-04T08:24:25.273Z,102173.08
2018-12-04T08:26:54.412Z,102177.42
2018-12-04T08:29:23.485Z,102183.78
2018-12-04T08:31:53.598Z,102193.14
2018-12-04T08:34:22.805Z,102208.18
2018-12-04T08:36:52.009Z,102212.76
2018-12-04T08:39:21.063Z,102216.02
2018-12-04T08:41:50.189Z,102216.89
2018-12-04T08:44:19.805Z,102223.55
2018-12-04T08:46:48.974Z,102223.14
2018-12-04T08:49:18.368Z,102223.05
2018-12-04T08:51:47.492Z,102221.16
2018-12-04T08:54:17.495Z,102227.19
2018-12-04T08:56:46.507Z,102227.62
2018-12-04T08:59:15.627Z,102214.48
2018-12-04T09:01:45.459Z,102217.06
2018-12-04T09:04:15.935Z,102227.56
2018-12-04T09:06:45.389Z,102222.81
2018-12-04T09:09:14.524Z,102222.81
2018-12-04T09:11:44.293Z,102213.08
2018-12-04T09:14:13.641Z,102219.91
2018-12-04T09:16:42.874Z,102221.09
2018-12-04T09:19:12.058Z,102221.19
2018-12-04T09:21:47.381Z,102216.77
2018-12-04T09:24:16.721Z,102224.23
2018-12-04T09:26:46.673Z,102222.09
2018-12-04T09:29:17.038Z,102223.88
2018-12-04T09:31:46.318Z,102228.98
2018-12-04T09:34:15.722Z,102228.15
2018-12-04T09:36:45.058Z,102234.52
2018-12-04T09:39:14.251Z,102241.19
2018-12-04T09:41:43.622Z,102235.22
2018-12-04T09:44:12.838Z,102238.55
2018-12-04T09:46:43.356Z,102240.23
2018-12-04T09:49:12.420Z,102238.28
2018-12-04T09:51:42.243Z,102242.36
2018-12-04T09:54:11.418Z,102235.84
2018-12-04T09:56:40.874Z,102234.50
2018-12-04T09:59:10.036Z,102229.83
2018-12-04T10:01:39.236Z,102231.50
2018-12-04T10:04:08.316Z,102226.08
2018-12-04T10:06:40.089Z,102228.98
2018-12-04T10:09:10.008Z,102224.37
2018-12-04T10:11:39.401Z,102225.98
2018-12-04T10:14:08.518Z,102221.80
2018-12-04T10:16:37.706Z,102223.77
2018-12-04T10:21:40.131Z,102234.00
2018-12-04T10:24:09.297Z,102236.48
2018-12-04T10:26:39.478Z,102237.28
2018-12-04T10:29:08.501Z,102241.69
2018-12-04T10:31:38.857Z,102250.70
2018-12-04T10:34:07.946Z,102253.69
2018-12-04T10:36:38.538Z,102261.98
2018-12-04T10:39:08.506Z,102262.45
2018-12-04T10:41:38.321Z,102264.63
2018-12-04T10:44:07.571Z,102275.08
2018-12-04T10:46:37.023Z,102273.38
2018-12-04T10:49:06.083Z,102266.20
2018-12-04T10:51:36.224Z,102261.40
2018-12-04T10:54:05.309Z,102250.95
2018-12-04T10:56:34.469Z,102250.06
2018-12-04T10:59:03.606Z,102238.88
2018-12-04T11:01:37.922Z,102231.23
2018-12-04T11:04:07.265Z,102231.11
2018-12-04T11:06:36.401Z,102225.00
2018-12-04T11:09:08.202Z,102222.78
2018-12-04T11:11:40.728Z,102220.45
2018-12-04T11:14:11.074Z,102224.06
2018-12-04T11:16:40.274Z,102227.38
2018-12-04T11:19:09.310Z,102217.28
2018-12-04T11:21:38.511Z,102212.19
2018-12-04T11:24:07.733Z,102211.25
2018-12-04T11:31:50.948Z,102205.83
2018-12-04T11:34:20.094Z,102202.81
2018-12-04T11:36:49.250Z,102209.97
2018-12-04T11:39:18.393Z,102212.91
2018-12-04T11:41:47.634Z,102213.14
2018-12-04T11:44:16.820Z,102210.43
2018-12-04T11:46:47.210Z,102210.48
2018-12-04T11:49:16.282Z,102214.03
2018-12-04T11:51:45.963Z,102213.61
2018-12-04T11:54:15.182Z,102224.29
2018-12-04T11:56:45.103Z,102224.90
2018-12-04T11:59:14.360Z,102218.44
2018-12-04T12:01:43.606Z,102220.31
2018-12-04T12:04:17.276Z,102220.22
2018-12-04T12:06:49.988Z,102228.67
2018-12-04T12:09:19.291Z,102235.74
2018-12-04T12:11:48.488Z,102233.55
2018-12-04T12:14:17.747Z,102226.25
2018-12-04T12:16:47.152Z,102234.38
2018-12-04T12:19:16.766Z,102244.94
2018-12-04T12:21:47.806Z,102255.78
2018-12-04T12:24:17.517Z,102256.81
2018-12-04T12:26:46.620Z,102256.20
2018-12-04T12:29:15.780Z,102268.25
2018-12-04T12:31:44.991Z,102271.09
2018-12-04T12:34:14.229Z,102274.58
2018-12-04T12:36:43.598Z,102285.61
2018-12-04T12:39:12.831Z,102280.74
2018-12-04T12:41:42.943Z,102278.32
2018-12-04T12:44:12.190Z,102271.87
2018-12-04T12:46:41.898Z,102267.25
2018-12-04T12:51:43.465Z,102250.92
2018-12-04T12:54:12.728Z,102257.48
2018-12-04T12:56:49.700Z,102262.45
2018-12-04T12:59:19.030Z,102257.12
2018-12-04T13:01:48.282Z,102256.05
2018-12-04T13:04:17.421Z,102255.30
2018-12-04T13:06:46.590Z,102241.23
2018-12-04T13:09:16.001Z,102228.81
2018-12-04T13:11:45.274Z,102209.23
2018-12-04T13:14:15.363Z,102210.58
2018-12-04T13:16:44.740Z,102217.06
2018-12-04T13:19:14.011Z,102218.11
2018-12-04T13:21:43.218Z,102231.05
2018-12-04T13:24:12.654Z,102247.31
2018-12-04T13:26:42.444Z,102261.47
2018-12-04T13:29:13.893Z,102267.50
2018-12-04T13:31:45.541Z,102270.53
2018-12-04T13:34:15.410Z,102264.05
2018-12-04T13:36:44.968Z,102258.62
2018-12-04T13:39:14.144Z,102256.20
2018-12-04T13:41:45.421Z,102248.08
2018-12-04T13:44:15.109Z,102238.91
2018-12-04T13:46:44.352Z,102242.45
2018-12-04T13:49:14.950Z,102240.27
2018-12-04T13:51:46.121Z,102228.91
2018-12-04T13:54:15.688Z,102214.73
2018-12-04T13:56:46.022Z,102200.58
2018-12-04T13:59:15.417Z,102186.19
2018-12-04T14:01:44.707Z,102189.97
2018-12-04T14:04:16.992Z,102158.85
2018-12-04T14:06:43.422Z,102165.11
2018-12-04T14:09:12.694Z,102187.41
2018-12-04T14:11:42.435Z,102195.02
2018-12-04T14:14:18.127Z,102193.66
2018-12-04T14:16:48.530Z,102207.50
2018-12-04T14:19:19.352Z,102217.83
2018-12-04T14:21:49.294Z,102217.08
2018-12-04T14:24:19.518Z,102212.84
2018-12-04T14:26:49.688Z,102212.42
2018-12-04T14:29:19.138Z,102203.54
2018-12-04T14:31:48.482Z,102195.09
2018-12-04T14:34:17.806Z,102179.88
2018-12-04T14:36:48.187Z,102164.14
2018-12-04T14:39:17.685Z,102161.19
2018-12-04T14:41:48.966Z,102160.81
2018-12-04T14:44:18.402Z,102157.36
2018-12-04T14:46:47.746Z,102163.62
2018-12-04T14:49:17.034Z,102158.95
2018-12-04T14:51:47.135Z,102162.41
2018-12-04T14:54:16.420Z,102151.47
2018-12-04T14:56:45.718Z,102162.78
2018-12-04T14:59:14.796Z,102169.79
2018-12-04T15:01:44.130Z,102168.95
2018-12-04T15:04:13.458Z,102178.95
2018-12-04T15:06:43.026Z,102175.73
2018-12-04T15:09:12.428Z,102183.02
2018-12-04T15:11:41.992Z,102189.80
2018-12-04T15:14:11.342Z,102207.42
2018-12-04T15:16:41.184Z,102212.09
2018-12-04T15:19:10.403Z,102207.05
2018-12-04T15:21:39.560Z,102203.54
2018-12-04T15:24:08.866Z,102201.41
2018-12-04T15:26:38.347Z,102204.11
2018-12-04T15:29:07.614Z,102205.70
2018-12-04T15:31:37.176Z,102215.73
2018-12-04T15:34:06.466Z,102215.42
2018-12-04T15:36:35.745Z,102216.26
2018-12-04T15:39:07.597Z,102200.22
2018-12-04T15:41:39.951Z,102203.97
2018-12-04T15:44:09.080Z,102199.61
2018-12-04T15:46:38.582Z,102188.77
2018-12-04T15:49:07.693Z,102178.35
2018-12-04T15:51:36.875Z,102194.42
2018-12-04T15:54:06.176Z,102206.07
2018-12-04T15:56:36.049Z,102181.98
2018-12-04T15:59:05.175Z,102165.49
2018-12-04T16:01:34.403Z,102146.22
2018-12-04T16:04:03.548Z,102146.74
2018-12-04T16:06:32.660Z,102149.14
2018-12-04T16:09:01.801Z,102137.48
2018-12-04T16:11:32.706Z,102117.67
2018-12-04T16:14:02.757Z,102106.83
2018-12-04T16:16:32.011Z,102110.38
2018-12-04T16:19:02.135Z,102114.95
2018-12-04T16:21:32.072Z,102111.13
2018-12-04T16:24:01.590Z,102114.87
2018-12-04T16:26:30.768Z,102118.88
2018-12-04T16:29:00.810Z,102128.37
2018-12-04T16:31:30.461Z,102139.22
2018-12-04T16:34:00.016Z,102132.67
2018-12-04T16:36:29.813Z,102130.99
2018-12-04T16:38:58.873Z,102134.03
2018-12-04T16:41:28.811Z,102129.95
2018-12-04T16:44:01.541Z,102123.98
2018-12-04T16:46:33.664Z,102112.54
2018-12-04T16:49:02.802Z,102120.67
2018-12-04T16:51:31.944Z,102114.73
2018-12-04T16:54:01.156Z,102109.02
2018-12-04T16:56:30.383Z,102103.83
2018-12-04T16:58:59.514Z,102123.33
2018-12-04T17:01:29.148Z,102128.80
2018-12-04T17:04:01.371Z,102113.61
2018-12-04T17:06:30.633Z,102109.54
2018-12-04T17:08:59.948Z,102102.48
2018-12-04T17:11:29.121Z,102098.93
2018-12-04T17:13:58.219Z,102099.77
2018-12-04T17:16:27.337Z,102102.77
2018-12-04T17:18:56.509Z,102099.22
2018-12-04T17:21:25.625Z,102092.99
2018-12-04T17:23:54.721Z,102095.70
2018-12-04T17:26:23.824Z,102093.19
2018-12-04T17:28:53.263Z,102099.45
2018-12-04T17:31:22.451Z,102080.99
2018-12-04T17:33:51.537Z,102086.22
2018-12-04T17:36:20.626Z,102090.56
2018-12-04T17:38:49.794Z,102098.18
2018-12-04T17:41:19.309Z,102104.73
2018-12-04T17:43:48.380Z,102106.31
2018-12-04T17:46:17.462Z,102113.61
2018-12-04T17:48:46.613Z,102110.89
2018-12-04T17:51:15.927Z,102110.66
2018-12-04T17:53:45.532Z,102114.73
2018-12-04T17:56:14.581Z,102107.12
2018-12-04T17:58:43.628Z,102095.70
2018-12-04T18:01:12.889Z,102091.03
2018-12-04T18:03:42.000Z,102093.42
2018-12-04T18:06:11.064Z,102089.06
2018-12-04T18:08:40.212Z,102081.37
2018-12-04T18:11:09.389Z,102079.20
2018-12-04T18:13:38.542Z,102075.38
2018-12-04T18:16:07.635Z,102077.77
2018-12-04T18:18:36.898Z,102066.92
2018-12-04T18:21:06.065Z,102064.53
2018-12-04T18:23:36.422Z,102053.89
2018-12-04T18:26:05.519Z,102053.69
2018-12-04T18:28:34.754Z,102043.89
2018-12-04T18:31:03.884Z,102036.36
2018-12-04T18:33:33.040Z,102034.72
2018-12-04T18:36:02.484Z,102034.41
2018-12-04T18:38:31.648Z,102028.90
2018-12-04T18:41:00.727Z,102026.42
2018-12-04T18:43:29.861Z,102024.14
2018-12-04T18:45:59.218Z,102017.28
2018-12-04T18:48:28.293Z,102017.83
2018-12-04T18:50:57.450Z,102013.77
2018-12-04T18:53:26.582Z,102009.98
2018-12-04T18:55:56.838Z,102010.59
2018-12-04T18:58:25.916Z,102003.09
2018-12-04T19:00:55.059Z,101987.36
2018-12-04T19:03:24.194Z,101993.30
2018-12-04T19:05:53.921Z,101988.08
2018-12-04T19:08:27.077Z,101983.21
2018-12-04T19:10:56.192Z,101971.82
2018-12-04T19:13:25.408Z,101968.59
2018-12-04T19:15:54.582Z,101954.00
2018-12-04T19:18:23.745Z,101944.84
2018-12-04T19:20:53.047Z,101945.13
2018-12-04T19:23:22.179Z,101938.95
2018-12-04T19:25:51.231Z,101923.01
2018-12-04T19:28:21.170Z,101915.69
2018-12-04T19:30:50.455Z,101899.50
2018-12-04T19:33:19.803Z,101886.55
2018-12-04T19:35:49.058Z,101883.31
2018-12-04T19:38:18.795Z,101888.50
2018-12-04T19:40:48.508Z,101886.39
2018-12-04T19:43:17.767Z,101895.13
2018-12-04T19:45:46.797Z,101876.44
2018-12-04T19:48:15.843Z,101888.91
2018-12-04T19:50:44.936Z,101882.45
2018-12-04T19:53:14.264Z,101881.37
2018-12-04T19:55:43.381Z,101870.53
2018-12-04T19:58:12.914Z,101870.53
2018-12-04T20:00:41.969Z,101878.67
2018-12-04T20:03:10.967Z,101884.41
2018-12-04T20:05:40.063Z,101878.67
2018-12-04T20:08:09.140Z,101880.02
2018-12-04T20:10:38.213Z,101875.67
2018-12-04T20:13:07.273Z,101868.90
2018-12-04T20:15:36.367Z,101865.36
2018-12-04T20:18:05.472Z,101866.70
2018-12-04T20:20:34.596Z,101859.41
2018-12-04T20:23:03.695Z,101841.27
2018-12-04T20:25:32.827Z,101832.59
2018-12-04T20:28:02.024Z,101822.06
2018-12-04T20:30:31.235Z,101817.44
2018-12-04T20:33:00.311Z,101813.97
2018-12-04T20:35:29.460Z,101813.45
2018-12-04T20:37:58.498Z,101807.79
2018-12-04T20:40:31.494Z,101813.81
2018-12-04T20:42:56.768Z,101812.21
2018-12-04T20:45:25.870Z,101798.66
2018-12-04T20:47:54.931Z,101792.95
2018-12-04T20:50:24.073Z,101794.91
2018-12-04T20:52:53.239Z,101782.95
2018-12-04T20:55:23.630Z,101784.06
2018-12-04T20:57:52.758Z,101790.84
2018-12-04T21:00:32.610Z,101773.73
2018-12-04T21:03:01.916Z,101782.47
2018-12-04T21:05:31.013Z,101770.78
2018-12-04T21:08:00.145Z,101766.96
2018-12-04T21:10:29.239Z,101770.20
2018-12-04T21:12:59.187Z,101764.48
2018-12-04T21:15:28.279Z,101765.53
2018-12-04T21:17:57.468Z,101764.48
2018-12-04T21:20:26.528Z,101765.84
2018-12-04T21:22:55.730Z,101767.97
2018-12-04T21:25:24.907Z,101763.58
2018-12-04T21:27:58.943Z,101757.59
2018-12-04T21:30:33.254Z,101748.56
2018-12-04T21:33:10.984Z,101751.52
2018-12-04T21:35:45.129Z,101753.11
2018-12-04T21:38:19.295Z,101749.52
2018-12-04T21:40:55.244Z,101747.86
2018-12-04T21:45:36.966Z,101753.75
2018-12-04T21:48:08.491Z,101744.95
2018-12-04T21:50:37.591Z,101744.36
2018-12-04T21:53:08.624Z,101751.09
2018-12-04T21:55:37.993Z,101751.09
2018-12-04T21:58:07.303Z,101745.67
2018-12-04T22:00:36.443Z,101757.11
2018-12-04T22:03:05.610Z,101740.89
2018-12-04T22:05:34.720Z,101740.69
2018-12-04T22:08:03.930Z,101743.67
2018-12-04T22:10:33.119Z,101740.20
2018-12-04T22:13:02.293Z,101740.80
2018-12-04T22:15:31.424Z,101742.20
2018-12-04T22:18:00.501Z,101737.92
2018-12-04T22:20:29.607Z,101731.42
2018-12-04T22:23:01.974Z,101730.35
2018-12-04T22:25:31.174Z,101733.89
2018-12-04T22:28:00.377Z,101727.95
2018-12-04T22:30:29.403Z,101722.81
2018-12-04T22:32:58.477Z,101718.75
2018-12-04T22:35:27.564Z,101714.44
2018-12-04T22:37:56.650Z,101707.14
2018-12-04T22:40:25.833Z,101705.51
2018-12-04T22:42:54.976Z,101699.32
2018-12-04T22:45:26.308Z,101702.59
2018-12-04T22:47:56.404Z,101703.73
2018-12-04T22:50:25.575Z,101696.72
2018-12-04T22:52:54.616Z,101691.58
2018-12-04T22:55:23.810Z,101685.91
2018-12-04T22:57:52.896Z,101683.27
2018-12-04T23:00:33.131Z,101690.92
2018-12-04T23:03:02.158Z,101696.41
2018-12-04T23:05:31.246Z,101686.98
2018-12-04T23:08:00.359Z,101689.45
2018-12-04T23:10:29.551Z,101674.30
2018-12-04T23:12:58.641Z,101669.16
2018-12-04T23:15:27.759Z,101657.55
2018-12-04T23:17:56.837Z,101663.03
2018-12-04T23:20:26.131Z,101662.27
2018-12-04T23:23:14.146Z,101651.45
2018-12-04T23:25:59.664Z,101652.88
2018-12-04T23:28:45.739Z,101656.97
2018-12-04T23:31:30.857Z,101650.02
2018-12-04T23:34:19.388Z,101641.11
2018-12-04T23:36:49.057Z,101657.20
2018-12-04T23:39:38.163Z,101652.36
2018-12-04T23:42:23.136Z,101649.68
2018-12-04T23:45:10.449Z,101640.77
2018-12-04T23:47:54.929Z,101646.27
2018-12-04T23:50:41.173Z,101640.34
2018-12-04T23:53:27.842Z,101648.30
2018-12-04T23:55:57.166Z,101644.04
2018-12-04T23:58:42.811Z,101645.98
